createdAt,value
2023-04-11T00:00:32.419Z,89.89
2023-04-11T00:01:32.519Z,89.89
2023-04-11T00:02:32.484Z,89.68
2023-04-11T00:03:32.457Z,89.89
2023-04-11T00:04:32.422Z,89.98
2023-04-11T00:05:32.377Z,90.09
2023-04-11T00:06:32.357Z,90.19
2023-04-11T00:07:32.326Z,89.89
2023-04-11T00:08:32.294Z,89.68
2023-04-11T00:09:32.278Z,89.58
2023-04-11T00:10:32.322Z,89.89
2023-04-11T00:11:32.244Z,89.78
2023-04-11T00:12:32.271Z,89.98
2023-04-11T00:13:32.227Z,89.98
2023-04-11T00:14:32.260Z,89.78
2023-04-11T00:15:32.224Z,89.89
2023-04-11T00:16:32.246Z,89.78
2023-04-11T00:17:32.222Z,89.68
2023-04-11T00:18:32.176Z,89.89
2023-04-11T00:19:32.194Z,89.98
2023-04-11T00:20:32.171Z,89.78
2023-04-11T00:21:32.206Z,89.43
2023-04-11T00:22:32.194Z,89.23
2023-04-11T00:23:32.119Z,89.47
2023-04-11T00:24:32.158Z,89.47
2023-04-11T00:25:32.124Z,89.89
2023-04-11T00:26:32.168Z,89.98
2023-04-11T00:27:32.101Z,89.98
2023-04-11T00:28:32.083Z,89.89
2023-04-11T00:29:32.097Z,89.98
2023-04-11T00:30:32.071Z,90.09
2023-04-11T00:31:32.093Z,89.89
2023-04-11T00:32:32.101Z,90.30
2023-04-11T00:33:32.055Z,90.19
2023-04-11T00:34:32.006Z,90.19
2023-04-11T00:35:32.097Z,90.19
2023-04-11T00:36:32.108Z,90.30
2023-04-11T00:37:31.984Z,90.19
2023-04-11T00:38:31.951Z,90.19
2023-04-11T00:39:32.601Z,90.13
2023-04-11T00:40:31.928Z,90.34
2023-04-11T00:41:32.641Z,90.34
2023-04-11T00:42:31.890Z,90.39
2023-04-11T00:43:31.885Z,90.44
2023-04-11T00:44:31.950Z,90.50
2023-04-11T00:45:31.932Z,90.50
2023-04-11T00:46:31.883Z,90.30
2023-04-11T00:47:31.957Z,90.09
2023-04-11T00:48:31.829Z,89.78
2023-04-11T00:49:31.853Z,89.89
2023-04-11T00:50:32.603Z,89.74
2023-04-11T00:51:31.883Z,90.19
2023-04-11T00:52:31.776Z,89.94
2023-04-11T00:53:31.900Z,89.74
2023-04-11T00:54:31.866Z,90.09
2023-04-11T00:55:32.721Z,90.50
2023-04-11T00:56:32.341Z,90.60
2023-04-11T00:57:31.944Z,90.81
2023-04-11T00:58:31.713Z,90.81
2023-04-11T00:59:31.774Z,90.91
2023-04-11T01:00:31.690Z,90.70
2023-04-11T01:01:31.717Z,90.91
2023-04-11T01:02:31.731Z,90.81
2023-04-11T01:03:31.959Z,90.70
2023-04-11T01:04:31.637Z,90.60
2023-04-11T01:05:31.693Z,90.50
2023-04-11T01:06:31.627Z,90.50
2023-04-11T01:07:31.612Z,90.39
2023-04-11T01:08:31.588Z,90.39
2023-04-11T01:09:31.588Z,90.09
2023-04-11T01:10:31.570Z,90.09
2023-04-11T01:11:31.589Z,90.15
2023-04-11T01:12:31.548Z,90.25
2023-04-11T01:13:31.542Z,90.30
2023-04-11T01:14:31.532Z,90.30
2023-04-11T01:15:31.547Z,89.78
2023-04-11T01:16:31.526Z,89.74
2023-04-11T01:17:31.552Z,89.58
2023-04-11T01:18:31.477Z,89.89
2023-04-11T01:19:31.473Z,89.68
2023-04-11T01:20:31.458Z,89.47
2023-04-11T01:21:31.471Z,89.58
2023-04-11T01:22:31.448Z,89.47
2023-04-11T01:23:31.586Z,89.37
2023-04-11T01:24:31.413Z,89.27
2023-04-11T01:25:31.430Z,89.17
2023-04-11T01:26:31.411Z,89.00
2023-04-11T01:27:31.386Z,88.80
2023-04-11T01:28:31.376Z,88.90
2023-04-11T01:29:31.357Z,89.00
2023-04-11T01:30:31.374Z,88.90
2023-04-11T01:31:31.359Z,89.00
2023-04-11T01:32:31.365Z,89.00
2023-04-11T01:33:31.364Z,89.42
2023-04-11T01:34:31.323Z,89.76
2023-04-11T01:35:31.346Z,89.83
2023-04-11T01:36:31.320Z,89.92
2023-04-11T01:37:31.273Z,89.76
2023-04-11T01:38:31.255Z,89.97
2023-04-11T01:39:31.256Z,89.87
2023-04-11T01:40:31.232Z,89.76
2023-04-11T01:41:31.226Z,89.66
2023-04-11T01:42:31.238Z,90.07
2023-04-11T01:43:31.208Z,90.17
2023-04-11T01:44:31.192Z,90.28
2023-04-11T01:45:31.176Z,90.37
2023-04-11T01:46:31.227Z,90.28
2023-04-11T01:47:31.210Z,90.37
2023-04-11T01:48:31.243Z,90.28
2023-04-11T01:49:31.145Z,90.37
2023-04-11T01:50:31.121Z,90.48
2023-04-11T01:51:31.119Z,90.58
2023-04-11T01:52:31.093Z,90.48
2023-04-11T01:53:31.112Z,90.62
2023-04-11T01:54:31.077Z,90.62
2023-04-11T01:55:31.064Z,90.37
2023-04-11T01:56:31.081Z,90.28
2023-04-11T01:57:31.071Z,90.28
2023-04-11T01:58:31.030Z,90.17
2023-04-11T01:59:31.041Z,90.28
2023-04-11T02:00:31.005Z,90.37
2023-04-11T02:01:31.043Z,90.28
2023-04-11T02:02:31.045Z,90.28
2023-04-11T02:03:30.998Z,90.17
2023-04-11T02:04:30.980Z,90.07
2023-04-11T02:05:30.952Z,89.87
2023-04-11T02:06:30.940Z,90.07
2023-04-11T02:07:30.934Z,89.97
2023-04-11T02:08:30.933Z,89.97
2023-04-11T02:09:30.904Z,89.87
2023-04-11T02:10:30.919Z,89.66
2023-04-11T02:11:30.901Z,89.56
2023-04-11T02:12:30.875Z,89.36
2023-04-11T02:13:30.881Z,89.15
2023-04-11T02:14:30.840Z,88.17
2023-04-11T02:15:30.939Z,87.55
2023-04-11T02:16:30.842Z,87.04
2023-04-11T02:17:30.855Z,86.93
2023-04-11T02:18:30.799Z,86.32
2023-04-11T02:19:30.800Z,86.52
2023-04-11T02:20:30.776Z,86.93
2023-04-11T02:21:30.805Z,86.93
2023-04-11T02:22:30.761Z,87.14
2023-04-11T02:23:30.755Z,87.45
2023-04-11T02:24:30.738Z,86.83
2023-04-11T02:25:30.743Z,87.34
2023-04-11T02:26:30.704Z,87.45
2023-04-11T02:27:30.731Z,87.70
2023-04-11T02:28:30.689Z,87.90
2023-04-11T02:29:30.678Z,88.00
2023-04-11T02:30:30.658Z,88.21
2023-04-11T02:31:30.717Z,88.21
2023-04-11T02:32:30.684Z,88.41
2023-04-11T02:33:30.633Z,88.66
2023-04-11T02:34:30.626Z,88.56
2023-04-11T02:35:30.641Z,88.66
2023-04-11T02:36:30.601Z,88.66
2023-04-11T02:37:30.615Z,89.17
2023-04-11T02:38:30.598Z,89.48
2023-04-11T02:39:30.563Z,89.37
2023-04-11T02:40:30.552Z,89.78
2023-04-11T02:41:30.541Z,90.30
2023-04-11T02:42:30.533Z,90.50
2023-04-11T02:43:30.524Z,90.81
2023-04-11T02:44:30.524Z,91.22
2023-04-11T02:45:30.496Z,91.28
2023-04-11T02:46:30.493Z,91.38
2023-04-11T02:47:30.503Z,91.28
2023-04-11T02:48:30.464Z,91.28
2023-04-11T02:49:30.491Z,91.28
2023-04-11T02:50:30.427Z,91.38
2023-04-11T02:51:30.433Z,91.28
2023-04-11T02:52:30.453Z,91.08
2023-04-11T02:53:30.409Z,91.08
2023-04-11T02:54:30.399Z,91.18
2023-04-11T02:55:30.411Z,91.08
2023-04-11T02:56:30.365Z,90.97
2023-04-11T02:57:30.367Z,90.97
2023-04-11T02:58:30.352Z,90.97
2023-04-11T02:59:30.337Z,91.08
2023-04-11T03:00:30.349Z,91.08
2023-04-11T03:01:30.337Z,91.08
2023-04-11T03:02:30.511Z,91.18
2023-04-11T03:03:30.320Z,91.18
2023-04-11T03:04:30.306Z,91.38
2023-04-11T03:05:30.281Z,91.18
2023-04-11T03:06:30.266Z,91.28
2023-04-11T03:07:30.248Z,91.38
2023-04-11T03:08:30.230Z,91.38
2023-04-11T03:09:30.221Z,91.38
2023-04-11T03:10:30.209Z,91.59
2023-04-11T03:11:30.226Z,91.90
2023-04-11T03:12:30.179Z,91.69
2023-04-11T03:13:30.178Z,91.59
2023-04-11T03:14:30.168Z,91.49
2023-04-11T03:15:30.166Z,91.28
2023-04-11T03:16:30.215Z,91.49
2023-04-11T03:17:30.182Z,91.49
2023-04-11T03:18:30.114Z,91.18
2023-04-11T03:19:30.142Z,90.97
2023-04-11T03:20:30.095Z,90.67
2023-04-11T03:21:30.086Z,90.50
2023-04-11T03:22:30.097Z,90.05
2023-04-11T03:23:30.070Z,89.84
2023-04-11T03:24:30.049Z,89.64
2023-04-11T03:25:30.038Z,89.43
2023-04-11T03:26:30.042Z,89.43
2023-04-11T03:27:30.026Z,89.48
2023-04-11T03:28:30.080Z,89.48
2023-04-11T03:29:29.995Z,89.37
2023-04-11T03:30:29.988Z,89.17
2023-04-11T03:31:29.995Z,89.27
2023-04-11T03:32:30.073Z,89.27
2023-04-11T03:33:29.955Z,89.37
2023-04-11T03:34:29.991Z,89.27
2023-04-11T03:35:29.949Z,89.07
2023-04-11T03:36:29.947Z,88.86
2023-04-11T03:37:29.909Z,88.76
2023-04-11T03:38:29.898Z,88.56
2023-04-11T03:39:29.892Z,88.56
2023-04-11T03:40:29.910Z,88.24
2023-04-11T03:41:29.867Z,88.24
2023-04-11T03:42:29.848Z,88.24
2023-04-11T03:43:29.855Z,88.24
2023-04-11T03:44:29.832Z,88.24
2023-04-11T03:45:29.825Z,88.14
2023-04-11T03:46:29.879Z,88.24
2023-04-11T03:47:29.840Z,88.56
2023-04-11T03:48:29.789Z,88.66
2023-04-11T03:49:29.769Z,88.66
2023-04-11T03:50:29.770Z,88.86
2023-04-11T03:51:29.762Z,88.96
2023-04-11T03:52:29.767Z,88.96
2023-04-11T03:53:29.726Z,89.07
2023-04-11T03:54:29.714Z,89.27
2023-04-11T03:55:29.719Z,89.69
2023-04-11T03:56:29.687Z,89.48
2023-04-11T03:57:29.717Z,89.48
2023-04-11T03:58:29.665Z,89.58
2023-04-11T03:59:29.671Z,89.48
2023-04-11T04:00:29.645Z,89.37
2023-04-11T04:01:29.644Z,89.37
2023-04-11T04:02:29.746Z,89.17
2023-04-11T04:03:29.919Z,88.86
2023-04-11T04:04:29.648Z,88.82
2023-04-11T04:05:29.594Z,89.03
2023-04-11T04:06:29.573Z,88.82
2023-04-11T04:07:29.575Z,88.92
2023-04-11T04:08:30.097Z,88.92
2023-04-11T04:09:29.541Z,88.92
2023-04-11T04:10:29.531Z,88.92
2023-04-11T04:11:29.529Z,88.92
2023-04-11T04:12:29.502Z,88.72
2023-04-11T04:13:29.498Z,88.76
2023-04-11T04:14:29.519Z,88.72
2023-04-11T04:15:29.476Z,88.66
2023-04-11T04:16:29.497Z,88.24
2023-04-11T04:17:29.505Z,87.73
2023-04-11T04:18:29.440Z,87.94
2023-04-11T04:19:29.463Z,87.63
2023-04-11T04:20:29.418Z,87.73
2023-04-11T04:21:29.404Z,87.94
2023-04-11T04:22:29.387Z,88.04
2023-04-11T04:23:29.387Z,87.84
2023-04-11T04:24:29.366Z,87.84
2023-04-11T04:25:29.371Z,87.53
2023-04-11T04:26:29.346Z,87.63
2023-04-11T04:27:29.350Z,87.32
2023-04-11T04:28:29.319Z,87.02
2023-04-11T04:29:29.329Z,86.91
2023-04-11T04:30:29.326Z,87.02
2023-04-11T04:31:29.334Z,87.02
2023-04-11T04:32:29.315Z,86.50
2023-04-11T04:33:29.268Z,85.31
2023-04-11T04:34:29.319Z,85.41
2023-04-11T04:35:29.275Z,85.93
2023-04-11T04:36:29.257Z,86.44
2023-04-11T04:37:29.242Z,87.26
2023-04-11T04:38:29.206Z,87.67
2023-04-11T04:39:29.201Z,87.88
2023-04-11T04:40:29.199Z,88.18
2023-04-11T04:41:29.206Z,88.29
2023-04-11T04:42:29.170Z,88.59
2023-04-11T04:43:29.155Z,88.70
2023-04-11T04:44:29.169Z,88.59
2023-04-11T04:45:29.183Z,88.80
2023-04-11T04:46:29.123Z,88.59
2023-04-11T04:47:29.155Z,87.92
2023-04-11T04:48:29.095Z,87.05
2023-04-11T04:49:29.099Z,86.95
2023-04-11T04:50:29.070Z,86.85
2023-04-11T04:51:29.074Z,86.95
2023-04-11T04:52:29.075Z,87.05
2023-04-11T04:53:29.035Z,87.05
2023-04-11T04:54:29.033Z,87.05
2023-04-11T04:55:29.027Z,86.89
2023-04-11T04:56:29.003Z,87.10
2023-04-11T04:57:29.004Z,87.10
2023-04-11T04:58:29.024Z,86.89
2023-04-11T04:59:28.997Z,87.20
2023-04-11T05:00:28.963Z,86.89
2023-04-11T05:01:28.981Z,86.83
2023-04-11T05:02:29.138Z,86.42
2023-04-11T05:03:29.114Z,86.32
2023-04-11T05:04:28.970Z,86.25
2023-04-11T05:05:28.942Z,86.15
2023-04-11T05:06:28.890Z,86.77
2023-04-11T05:07:28.910Z,86.97
2023-04-11T05:08:28.880Z,87.18
2023-04-11T05:09:28.861Z,87.01
2023-04-11T05:10:29.294Z,87.63
2023-04-11T05:11:28.850Z,87.94
2023-04-11T05:12:28.820Z,88.66
2023-04-11T05:13:28.870Z,89.42
2023-04-11T05:14:28.797Z,89.97
2023-04-11T05:15:28.795Z,91.05
2023-04-11T05:16:28.863Z,91.87
2023-04-11T05:17:28.824Z,91.66
2023-04-11T05:18:28.768Z,92.12
2023-04-11T05:19:28.793Z,92.43
2023-04-11T05:20:28.739Z,93.09
2023-04-11T05:21:28.761Z,93.30
2023-04-11T05:22:28.710Z,93.71
2023-04-11T05:23:28.740Z,93.71
2023-04-11T05:24:28.699Z,93.60
2023-04-11T05:25:28.692Z,93.75
2023-04-11T05:26:28.685Z,94.06
2023-04-11T05:27:28.683Z,94.17
2023-04-11T05:28:28.649Z,94.17
2023-04-11T05:29:28.719Z,94.27
2023-04-11T05:30:28.652Z,94.37
2023-04-11T05:31:28.633Z,94.37
2023-04-11T05:32:28.661Z,93.75
2023-04-11T05:33:28.597Z,93.75
2023-04-11T05:34:28.567Z,93.75
2023-04-11T05:35:28.598Z,93.60
2023-04-11T05:36:28.542Z,93.30
2023-04-11T05:37:28.541Z,93.30
2023-04-11T05:38:28.551Z,93.35
2023-04-11T05:39:28.518Z,92.99
2023-04-11T05:40:28.505Z,93.05
2023-04-11T05:41:28.498Z,92.94
2023-04-11T05:42:28.485Z,93.15
2023-04-11T05:43:29.691Z,93.15
2023-04-11T05:46:33.659Z,93.11
2023-04-11T05:47:34.540Z,93.01
2023-04-11T05:48:34.516Z,92.96
2023-04-11T05:49:34.524Z,92.96
2023-04-11T05:50:34.504Z,92.86
2023-04-11T05:51:34.478Z,92.76
2023-04-11T05:52:34.478Z,92.76
2023-04-11T05:53:34.465Z,92.86
2023-04-11T05:54:34.448Z,92.96
2023-04-11T05:55:34.452Z,92.96
2023-04-11T05:56:34.426Z,93.06
2023-04-11T05:57:34.421Z,92.96
2023-04-11T05:58:34.404Z,92.92
2023-04-11T05:59:34.384Z,93.02
2023-04-11T06:00:34.401Z,93.02
2023-04-11T06:01:34.393Z,93.02
2023-04-11T06:02:34.493Z,92.55
2023-04-11T06:03:34.469Z,92.65
2023-04-11T06:04:34.615Z,92.65
2023-04-11T06:05:34.316Z,92.76
2023-04-11T06:06:34.337Z,92.96
2023-04-11T06:07:34.296Z,92.86
2023-04-11T06:08:34.308Z,93.16
2023-04-11T06:09:34.342Z,93.37
2023-04-11T06:10:34.283Z,93.48
2023-04-11T06:11:34.278Z,93.37
2023-04-11T06:12:34.250Z,93.58
2023-04-11T06:13:34.241Z,93.48
2023-04-11T06:14:34.228Z,93.48
2023-04-11T06:15:34.292Z,93.16
2023-04-11T06:16:34.230Z,93.37
2023-04-11T06:17:34.221Z,93.16
2023-04-11T06:18:34.191Z,93.68
2023-04-11T06:19:34.180Z,93.58
2023-04-11T06:20:34.168Z,94.09
2023-04-11T06:21:34.153Z,94.30
2023-04-11T06:22:34.163Z,94.60
2023-04-11T06:23:34.120Z,94.30
2023-04-11T06:24:34.122Z,94.46
2023-04-11T06:25:34.099Z,94.46
2023-04-11T06:26:34.093Z,94.15
2023-04-11T06:27:34.087Z,94.26
2023-04-11T06:28:34.098Z,94.42
2023-04-11T06:29:34.058Z,94.21
2023-04-11T06:30:34.042Z,94.01
2023-04-11T06:31:34.189Z,93.80
2023-04-11T06:32:34.076Z,93.55
2023-04-11T06:33:34.032Z,93.44
2023-04-11T06:34:34.052Z,93.14
2023-04-11T06:35:34.048Z,93.14
2023-04-11T06:36:34.026Z,93.04
2023-04-11T06:37:33.974Z,92.83
2023-04-11T06:38:33.981Z,92.52
2023-04-11T06:39:34.009Z,92.42
2023-04-11T06:40:33.972Z,92.42
2023-04-11T06:41:33.926Z,92.42
2023-04-11T06:42:33.958Z,92.52
2023-04-11T06:43:33.936Z,92.73
2023-04-11T06:44:33.926Z,92.63
2023-04-11T06:45:33.906Z,92.63
2023-04-11T06:46:33.875Z,92.52
2023-04-11T06:47:33.908Z,92.32
2023-04-11T06:48:33.860Z,92.11
2023-04-11T06:49:33.880Z,92.21
2023-04-11T06:50:33.827Z,91.60
2023-04-11T06:51:33.828Z,89.31
2023-04-11T06:52:33.830Z,89.56
2023-04-11T06:53:33.794Z,89.67
2023-04-11T06:54:33.791Z,89.87
2023-04-11T06:55:33.779Z,90.18
2023-04-11T06:56:33.796Z,90.90
2023-04-11T06:57:33.742Z,91.31
2023-04-11T06:58:33.745Z,91.52
2023-04-11T06:59:33.729Z,91.72
2023-04-11T07:00:33.720Z,91.72
2023-04-11T07:01:33.749Z,91.93
2023-04-11T07:02:33.958Z,92.24
2023-04-11T07:03:33.789Z,92.55
2023-04-11T07:04:33.807Z,92.40
2023-04-11T07:05:33.656Z,92.20
2023-04-11T07:06:33.700Z,92.10
2023-04-11T07:07:33.637Z,91.99
2023-04-11T07:08:33.662Z,91.68
2023-04-11T07:09:33.616Z,91.64
2023-04-11T07:10:33.646Z,91.64
2023-04-11T07:11:33.586Z,91.53
2023-04-11T07:12:33.588Z,91.23
2023-04-11T07:13:33.567Z,90.20
2023-04-11T07:14:33.585Z,89.75
2023-04-11T07:15:33.550Z,89.64
2023-04-11T07:16:33.593Z,89.60
2023-04-11T07:17:33.636Z,89.19
2023-04-11T07:18:33.540Z,88.02
2023-04-11T07:19:33.552Z,87.37
2023-04-11T07:20:33.514Z,87.77
2023-04-11T07:21:33.509Z,87.37
2023-04-11T07:22:33.466Z,87.26
2023-04-11T07:23:33.470Z,86.85
2023-04-11T07:24:33.445Z,85.93
2023-04-11T07:25:33.465Z,86.13
2023-04-11T07:26:33.425Z,85.82
2023-04-11T07:27:33.418Z,85.93
2023-04-11T07:28:33.396Z,85.82
2023-04-11T07:29:33.399Z,85.52
2023-04-11T07:30:33.443Z,84.69
2023-04-11T07:31:33.403Z,83.67
2023-04-11T07:32:33.415Z,82.75
2023-04-11T07:33:33.336Z,82.03
2023-04-11T07:34:33.356Z,81.62
2023-04-11T07:35:33.364Z,83.56
2023-04-11T07:36:33.376Z,82.29
2023-04-11T07:37:33.293Z,80.79
2023-04-11T07:38:33.318Z,80.45
2023-04-11T07:39:33.285Z,79.93
2023-04-11T07:40:33.262Z,80.45
2023-04-11T07:41:33.292Z,80.96
2023-04-11T07:42:33.258Z,78.97
2023-04-11T07:43:33.245Z,79.49
2023-04-11T07:44:33.224Z,78.46
2023-04-11T07:45:33.281Z,77.50
2023-04-11T07:46:33.203Z,77.67
2023-04-11T07:47:33.277Z,75.86
2023-04-11T07:48:33.181Z,76.92
2023-04-11T07:49:33.170Z,78.32
2023-04-11T07:50:33.154Z,77.71
2023-04-11T07:51:33.148Z,76.37
2023-04-11T07:52:33.147Z,76.27
2023-04-11T07:53:33.186Z,77.81
2023-04-11T07:54:33.126Z,77.87
2023-04-11T07:55:33.101Z,77.73
2023-04-11T07:56:33.099Z,76.68
2023-04-11T07:57:33.072Z,75.86
2023-04-11T07:58:33.073Z,75.79
2023-04-11T07:59:33.077Z,76.31
2023-04-11T08:00:33.055Z,76.85
2023-04-11T08:01:33.047Z,76.85
2023-04-11T08:02:33.424Z,77.57
2023-04-11T08:03:33.182Z,77.57
2023-04-11T08:04:33.156Z,77.23
2023-04-11T08:05:33.036Z,77.33
2023-04-11T08:06:32.980Z,76.81
2023-04-11T08:07:32.963Z,75.79
2023-04-11T08:08:32.954Z,75.69
2023-04-11T08:09:32.943Z,77.09
2023-04-11T08:10:32.937Z,74.53
2023-04-11T08:11:32.941Z,75.04
2023-04-11T08:12:32.918Z,75.04
2023-04-11T08:13:32.889Z,74.02
2023-04-11T08:14:32.915Z,74.32
2023-04-11T08:15:32.887Z,74.63
2023-04-11T08:16:32.923Z,74.32
2023-04-11T08:17:33.121Z,74.43
2023-04-11T08:18:32.842Z,74.29
2023-04-11T08:19:32.829Z,72.86
2023-04-11T08:20:32.817Z,72.04
2023-04-11T08:21:32.812Z,72.17
2023-04-11T08:22:32.851Z,72.69
2023-04-11T08:23:32.792Z,71.56
2023-04-11T08:24:32.784Z,72.69
2023-04-11T08:25:32.760Z,72.38
2023-04-11T08:26:32.752Z,72.48
2023-04-11T08:27:32.747Z,72.04
2023-04-11T08:28:32.761Z,71.53
2023-04-11T08:29:32.744Z,70.91
2023-04-11T08:30:32.731Z,70.47
2023-04-11T08:31:32.696Z,69.93
2023-04-11T08:32:32.730Z,70.75
2023-04-11T08:33:32.667Z,67.98
2023-04-11T08:34:32.715Z,69.79
2023-04-11T08:35:32.680Z,68.80
2023-04-11T08:36:32.659Z,68.52
2023-04-11T08:37:32.643Z,70.06
2023-04-11T08:38:32.633Z,70.54
2023-04-11T08:39:32.606Z,68.49
2023-04-11T08:40:32.648Z,67.57
2023-04-11T08:41:32.590Z,68.93
2023-04-11T08:42:32.574Z,68.52
2023-04-11T08:43:32.560Z,68.25
2023-04-11T08:44:32.554Z,69.24
2023-04-11T08:45:32.544Z,68.76
2023-04-11T08:46:32.584Z,69.96
2023-04-11T08:47:32.543Z,69.79
2023-04-11T08:48:32.572Z,69.96
2023-04-11T08:49:32.494Z,69.79
2023-04-11T08:50:32.492Z,70.50
2023-04-11T08:51:32.471Z,71.01
2023-04-11T08:52:32.537Z,71.15
2023-04-11T08:53:32.451Z,67.19
2023-04-11T08:54:32.453Z,67.78
2023-04-11T08:55:32.428Z,67.91
2023-04-11T08:56:32.416Z,68.42
2023-04-11T08:57:32.427Z,69.21
2023-04-11T08:58:32.429Z,68.16
2023-04-11T08:59:32.382Z,69.35
2023-04-11T09:00:32.634Z,69.04
2023-04-11T09:01:32.702Z,67.27
2023-04-11T09:02:32.402Z,68.06
2023-04-11T09:03:32.395Z,67.14
2023-04-11T09:04:32.316Z,67.45
2023-04-11T09:05:32.309Z,66.22
2023-04-11T09:06:32.304Z,66.08
2023-04-11T09:07:32.304Z,67.24
2023-04-11T09:08:32.281Z,67.21
2023-04-11T09:09:32.284Z,67.61
2023-04-11T09:10:32.263Z,67.92
2023-04-11T09:11:32.336Z,67.00
2023-04-11T09:12:32.239Z,67.24
2023-04-11T09:13:32.224Z,67.24
2023-04-11T09:14:32.619Z,66.86
2023-04-11T09:15:32.228Z,66.78
2023-04-11T09:16:32.201Z,67.40
2023-04-11T09:17:32.214Z,66.66
2023-04-11T09:18:32.173Z,66.11
2023-04-11T09:19:32.159Z,66.39
2023-04-11T09:20:32.168Z,65.50
2023-04-11T09:21:32.496Z,65.67
2023-04-11T09:22:32.120Z,65.34
2023-04-11T09:23:32.109Z,65.54
2023-04-11T09:24:34.006Z,65.47
2023-04-11T09:25:32.117Z,65.77
2023-04-11T09:26:32.077Z,65.98
2023-04-11T09:27:32.067Z,66.59
2023-04-11T09:28:32.056Z,65.60
2023-04-11T09:29:32.050Z,65.94
2023-04-11T09:30:32.051Z,66.66
2023-04-11T09:31:32.060Z,67.65
2023-04-11T09:32:34.641Z,67.51
2023-04-11T09:33:32.012Z,66.46
2023-04-11T09:34:31.988Z,66.80
2023-04-11T09:35:32.049Z,65.37
2023-04-11T09:36:31.977Z,64.25
2023-04-11T09:37:31.954Z,65.71
2023-04-11T09:38:31.973Z,67.35
2023-04-11T09:39:31.936Z,66.83
2023-04-11T09:40:31.972Z,65.44
2023-04-11T09:41:31.912Z,64.86
2023-04-11T09:42:31.899Z,64.55
2023-04-11T09:43:31.899Z,65.09
2023-04-11T09:44:31.875Z,66.21
2023-04-11T09:45:38.117Z,67.24
2023-04-11T09:46:31.887Z,68.77
2023-04-11T09:47:31.895Z,71.33
2023-04-11T09:48:45.511Z,71.66
2023-04-11T09:49:31.854Z,72.21
2023-04-11T09:50:31.824Z,73.40
2023-04-11T09:51:35.959Z,73.10
2023-04-11T09:52:31.795Z,72.75
2023-04-11T09:53:31.773Z,70.81
2023-04-11T09:54:31.757Z,70.47
2023-04-11T09:55:31.780Z,70.03
2023-04-11T09:56:31.785Z,71.12
2023-04-11T09:57:31.734Z,69.76
2023-04-11T09:58:31.718Z,67.49
2023-04-11T09:59:31.709Z,68.20
2023-04-11T10:00:31.723Z,67.52
2023-04-11T10:01:31.707Z,67.73
2023-04-11T10:02:31.803Z,67.69
2023-04-11T10:03:31.677Z,65.66
2023-04-11T10:04:31.688Z,65.86
2023-04-11T10:05:31.678Z,65.42
2023-04-11T10:06:31.932Z,65.65
2023-04-11T10:07:31.625Z,65.68
2023-04-11T10:08:31.601Z,66.02
2023-04-11T10:09:31.607Z,65.23
2023-04-11T10:10:31.653Z,66.25
2023-04-11T10:11:31.582Z,66.05
2023-04-11T10:12:31.582Z,66.36
2023-04-11T10:13:31.549Z,66.18
2023-04-11T10:14:31.552Z,68.02
2023-04-11T10:15:31.552Z,66.83
2023-04-11T10:16:31.542Z,66.09
2023-04-11T10:17:31.534Z,65.65
2023-04-11T10:18:31.496Z,65.72
2023-04-11T10:19:31.495Z,65.89
2023-04-11T10:20:31.500Z,64.67
2023-04-11T10:21:31.460Z,64.57
2023-04-11T10:22:31.444Z,65.08
2023-04-11T10:23:31.446Z,62.63
2023-04-11T10:24:31.429Z,59.89
2023-04-11T10:25:31.453Z,62.02
2023-04-11T10:26:31.411Z,62.51
2023-04-11T10:27:31.399Z,60.27
2023-04-11T10:28:31.379Z,60.39
2023-04-11T10:29:31.395Z,61.41
2023-04-11T10:30:31.381Z,60.06
2023-04-11T10:31:31.457Z,59.86
2023-04-11T10:32:31.382Z,57.54
2023-04-11T10:33:31.348Z,59.55
2023-04-11T10:34:31.323Z,58.84
2023-04-11T10:35:31.357Z,57.21
2023-04-11T10:36:31.294Z,60.34
2023-04-11T10:37:31.292Z,58.40
2023-04-11T10:38:31.274Z,56.68
2023-04-11T10:39:31.270Z,57.31
2023-04-11T10:40:31.281Z,58.51
2023-04-11T10:41:31.250Z,57.90
2023-04-11T10:42:31.227Z,58.81
2023-04-11T10:43:31.248Z,58.23
2023-04-11T10:44:31.205Z,59.86
2023-04-11T10:45:31.221Z,61.56
2023-04-11T10:46:31.231Z,60.68
2023-04-11T10:47:31.220Z,63.01
2023-04-11T10:48:31.158Z,63.45
2023-04-11T10:49:31.154Z,62.97
2023-04-11T10:50:31.158Z,63.35
2023-04-11T10:51:31.134Z,64.34
2023-04-11T10:52:31.113Z,61.75
2023-04-11T10:53:31.110Z,62.77
2023-04-11T10:54:31.109Z,63.12
2023-04-11T10:55:31.103Z,62.68
2023-04-11T10:56:31.073Z,61.76
2023-04-11T10:57:31.059Z,62.71
2023-04-11T10:58:31.053Z,61.43
2023-04-11T10:59:31.066Z,59.91
2023-04-11T11:00:32.649Z,60.75
2023-04-11T11:01:37.161Z,62.24
2023-04-11T11:02:31.130Z,61.27
2023-04-11T11:03:31.133Z,58.40
2023-04-11T11:04:31.023Z,57.43
2023-04-11T11:05:30.985Z,57.77
2023-04-11T11:06:30.953Z,58.17
2023-04-11T11:07:30.951Z,57.49
2023-04-11T11:08:30.955Z,55.79
2023-04-11T11:09:30.927Z,56.32
2023-04-11T11:10:30.923Z,56.52
2023-04-11T11:11:30.900Z,56.29
2023-04-11T11:12:30.880Z,57.42
2023-04-11T11:13:30.882Z,57.42
2023-04-11T11:14:30.859Z,57.79
2023-04-11T11:15:30.874Z,56.81
2023-04-11T11:16:30.854Z,56.93
2023-04-11T11:17:30.878Z,58.74
2023-04-11T11:18:30.819Z,57.97
2023-04-11T11:19:30.811Z,57.11
2023-04-11T11:20:30.810Z,58.46
2023-04-11T11:21:30.784Z,59.58
2023-04-11T11:22:30.781Z,59.61
2023-04-11T11:23:30.765Z,59.84
2023-04-11T11:24:30.761Z,60.63
2023-04-11T11:25:30.763Z,59.78
2023-04-11T11:26:30.728Z,57.82
2023-04-11T11:27:30.717Z,56.50
2023-04-11T11:28:30.707Z,56.88
2023-04-11T11:29:30.693Z,55.96
2023-04-11T11:30:30.714Z,56.85
2023-04-11T11:31:30.698Z,56.62
2023-04-11T11:32:30.677Z,57.51
2023-04-11T11:33:30.667Z,54.54
2023-04-11T11:34:30.640Z,55.73
2023-04-11T11:35:30.660Z,54.51
2023-04-11T11:36:30.623Z,54.24
2023-04-11T11:37:30.609Z,51.92
2023-04-11T11:38:30.613Z,52.12
2023-04-11T11:39:30.582Z,52.61
2023-04-11T11:40:30.593Z,52.40
2023-04-11T11:41:30.558Z,52.99
2023-04-11T11:42:30.561Z,51.75
2023-04-11T11:43:30.534Z,52.84
2023-04-11T11:44:30.525Z,52.94
2023-04-11T11:45:30.548Z,52.92
2023-04-11T11:46:30.551Z,51.54
2023-04-11T11:47:30.522Z,52.79
2023-04-11T11:48:30.471Z,54.31
2023-04-11T11:49:30.467Z,53.37
2023-04-11T11:50:30.474Z,54.08
2023-04-11T11:51:30.453Z,54.77
2023-04-11T11:52:30.433Z,54.49
2023-04-11T11:53:30.428Z,54.33
2023-04-11T11:54:30.411Z,52.84
2023-04-11T11:55:30.421Z,53.88
2023-04-11T11:56:30.395Z,54.49
2023-04-11T11:57:30.377Z,54.69
2023-04-11T11:58:30.380Z,52.84
2023-04-11T11:59:30.358Z,52.15
2023-04-11T12:00:30.372Z,53.47
2023-04-11T12:01:30.338Z,52.86
2023-04-11T12:02:30.500Z,53.85
2023-04-11T12:03:30.445Z,52.48
2023-04-11T12:04:30.539Z,49.44
2023-04-11T12:05:30.914Z,49.19
2023-04-11T12:06:30.276Z,50.96
2023-04-11T12:07:30.269Z,49.36
2023-04-11T12:08:30.265Z,50.58
2023-04-11T12:09:30.243Z,51.39
2023-04-11T12:10:30.255Z,51.98
2023-04-11T12:11:30.228Z,50.35
2023-04-11T12:12:30.237Z,50.76
2023-04-11T12:13:30.199Z,52.79
2023-04-11T12:14:30.185Z,52.15
2023-04-11T12:15:30.201Z,51.82
2023-04-11T12:16:30.285Z,50.73
2023-04-11T12:17:30.202Z,52.18
2023-04-11T12:18:30.148Z,52.48
2023-04-11T12:19:30.138Z,51.37
2023-04-11T12:20:30.149Z,50.76
2023-04-11T12:21:30.114Z,50.68
2023-04-11T12:22:30.110Z,51.11
2023-04-11T12:23:30.110Z,51.31
2023-04-11T12:24:30.076Z,50.37
2023-04-11T12:25:30.115Z,50.20
2023-04-11T12:26:30.061Z,50.93
2023-04-11T12:27:30.051Z,51.64
2023-04-11T12:28:30.034Z,52.37
2023-04-11T12:29:30.037Z,50.45
2023-04-11T12:30:30.267Z,50.75
2023-04-11T12:31:30.093Z,51.36
2023-04-11T12:32:30.003Z,51.69
2023-04-11T12:33:29.982Z,51.59
2023-04-11T12:34:29.964Z,51.92
2023-04-11T12:35:29.975Z,51.61
2023-04-11T12:36:30.071Z,52.15
2023-04-11T12:37:29.940Z,52.96
2023-04-11T12:38:29.920Z,52.55
2023-04-11T12:39:29.913Z,50.82
2023-04-11T12:40:30.002Z,51.51
2023-04-11T12:41:32.617Z,51.00
2023-04-11T12:42:29.874Z,52.91
2023-04-11T12:43:29.869Z,51.08
2023-04-11T12:44:29.861Z,50.47
2023-04-11T12:45:29.896Z,51.69
2023-04-11T12:46:29.850Z,51.26
2023-04-11T12:47:29.910Z,49.43
2023-04-11T12:48:29.841Z,50.09
2023-04-11T12:49:29.797Z,51.46
2023-04-11T12:50:29.800Z,49.39
2023-04-11T12:51:29.782Z,47.99
2023-04-11T12:52:29.754Z,48.07
2023-04-11T12:53:29.755Z,48.05
2023-04-11T12:54:29.735Z,48.25